Time;durP1;ratioP1;P1;durP2;ratioP2;P2;SDS_P1;SDS_P2;PMS_P1;PMS_P2;Temp;Humidity;BMP_temperature;BMP_pressure;BME280_temperature;BME280_humidity;BME280_pressure;Samples;Min_cycle;Max_cycle;Signal;HPM_P1;HPM_P2
2023/05/14 00:00:06;;;;;;;14.63;10.05;;;11.40;99.90;;;;;;5025654;28;20045;-76
2023/05/14 00:02:32;;;;;;;12.65;9.55;;;11.40;99.90;;;;;;5031895;28;20049;-76
2023/05/14 00:05:00;;;;;;;13.00;9.80;;;11.40;99.90;;;;;;5027162;28;20183;-77
2023/05/14 00:07:29;;;;;;;17.83;10.90;;;11.40;99.90;;;;;;5018312;28;20045;-76
2023/05/14 00:09:56;;;;;;;14.20;10.20;;;11.40;99.90;;;;;;5027176;28;20063;-77
2023/05/14 00:12:22;;;;;;;16.52;10.55;;;11.40;99.90;;;;;;5012732;28;20095;-76
2023/05/14 00:14:48;;;;;;;17.63;11.35;;;11.40;99.90;;;;;;5024238;28;20159;-74
2023/05/14 00:17:13;;;;;;;13.88;10.55;;;11.40;99.90;;;;;;5018383;28;20048;-75
2023/05/14 00:19:40;;;;;;;16.73;10.80;;;11.40;99.90;;;;;;5030459;28;20053;-77
2023/05/14 00:22:10;;;;;;;15.95;10.73;;;11.40;99.90;;;;;;5027267;28;20053;-76
2023/05/14 00:24:36;;;;;;;12.98;9.98;;;11.30;99.90;;;;;;5031025;28;20038;-76
2023/05/14 00:27:02;;;;;;;14.98;10.57;;;11.30;99.90;;;;;;5029176;28;20053;-76
2023/05/14 00:29:28;;;;;;;11.68;9.00;;;11.30;99.90;;;;;;5047891;28;20045;-75
2023/05/14 00:31:54;;;;;;;13.27;9.80;;;11.30;99.90;;;;;;5030938;28;20505;-76
2023/05/14 00:34:21;;;;;;;13.80;9.23;;;11.30;99.90;;;;;;5018451;28;20137;-76
2023/05/14 00:36:47;;;;;;;13.73;9.65;;;11.30;99.90;;;;;;5026669;28;20130;-76
2023/05/14 00:39:13;;;;;;;14.00;9.05;;;11.30;99.90;;;;;;5022247;28;20835;-76
2023/05/14 00:41:39;;;;;;;12.20;9.43;;;11.30;99.90;;;;;;4998637;28;20162;-77
2023/05/14 00:44:05;;;;;;;15.00;9.55;;;11.20;99.90;;;;;;5010998;28;20247;-76
2023/05/14 00:46:37;;;;;;;13.73;9.55;;;10.40;99.90;;;;;;5017297;28;20037;-76
2023/05/14 00:49:09;;;;;;;16.30;10.25;;;11.20;99.90;;;;;;4970405;28;20049;-75
2023/05/14 00:51:35;;;;;;;16.73;11.30;;;11.20;99.90;;;;;;5012390;28;20048;-77
2023/05/14 00:54:01;;;;;;;18.40;11.95;;;11.20;99.90;;;;;;5023383;28;20041;-76
2023/05/14 00:56:28;;;;;;;16.70;11.18;;;11.20;99.90;;;;;;5015947;28;20464;-75
2023/05/14 00:58:54;;;;;;;18.65;10.23;;;11.30;99.90;;;;;;5016794;28;20136;-75
2023/05/14 01:01:20;;;;;;;14.60;9.95;;;11.20;99.90;;;;;;5014441;28;20053;-77
2023/05/14 01:03:46;;;;;;;14.25;9.25;;;11.20;99.90;;;;;;4983175;28;20046;-77
2023/05/14 01:06:22;;;;;;;13.02;9.35;;;11.20;99.90;;;;;;4995578;28;21600;-78
2023/05/14 01:09:06;;;;;;;13.55;8.43;;;11.20;99.90;;;;;;5000803;28;21738;-77
2023/05/14 01:11:38;;;;;;;15.10;9.60;;;11.30;99.90;;;;;;5017310;28;20045;-76
2023/05/14 01:14:19;;;;;;;15.13;9.10;;;11.30;99.90;;;;;;5022121;28;20129;-77
2023/05/14 01:16:49;;;;;;;13.02;9.43;;;11.30;99.90;;;;;;5015256;28;20057;-77
2023/05/14 01:19:42;;;;;;;14.45;9.65;;;11.30;99.90;;;;;;5031056;28;20131;-76
2023/05/14 01:22:09;;;;;;;17.85;10.68;;;11.30;99.90;;;;;;5007767;28;20051;-76
2023/05/14 01:24:35;;;;;;;17.90;11.13;;;11.30;99.90;;;;;;5002666;28;20057;-76
2023/05/14 01:27:32;;;;;;;16.63;10.13;;;11.30;99.90;;;;;;5017592;28;20131;-77
2023/05/14 01:30:15;;;;;;;20.42;11.02;;;11.30;99.90;;;;;;5016349;28;20049;-77
2023/05/14 01:32:46;;;;;;;20.67;11.88;;;11.30;99.90;;;;;;5025655;28;20104;-76
2023/05/14 01:35:12;;;;;;;17.40;12.32;;;11.30;99.90;;;;;;4997807;28;21035;-76
2023/05/14 01:37:38;;;;;;;20.98;11.80;;;11.30;99.90;;;;;;5015052;28;20067;-74
2023/05/14 01:40:06;;;;;;;14.05;11.43;;;11.30;99.90;;;;;;4998937;28;20155;-75
2023/05/14 01:42:37;;;;;;;17.17;11.75;;;11.30;99.90;;;;;;5018634;28;20052;-75
2023/05/14 01:45:04;;;;;;;18.40;12.02;;;11.30;99.90;;;;;;5021404;28;20913;-72
2023/05/14 01:47:30;;;;;;;18.58;12.63;;;11.30;99.90;;;;;;5016176;28;20376;-75
2023/05/14 01:49:56;;;;;;;14.25;11.45;;;11.30;99.90;;;;;;5011538;28;20044;-77
2023/05/14 01:52:22;;;;;;;19.08;12.48;;;11.30;99.90;;;;;;5022027;28;20324;-77
2023/05/14 01:54:49;;;;;;;20.77;11.55;;;11.30;99.90;;;;;;5013394;28;20056;-76
2023/05/14 01:57:15;;;;;;;16.75;10.75;;;11.30;99.90;;;;;;5002853;28;20099;-77
2023/05/14 01:59:43;;;;;;;17.65;10.95;;;12.30;99.90;;;;;;5019928;28;20045;-75
2023/05/14 02:02:09;;;;;;;13.88;10.30;;;11.40;99.90;;;;;;4985284;28;20442;-75
2023/05/14 02:04:35;;;;;;;19.25;11.57;;;11.40;99.90;;;;;;5000474;28;20641;-75
2023/05/14 02:07:00;;;;;;;14.85;9.77;;;11.30;99.90;;;;;;5013421;28;20754;-75
2023/05/14 02:09:28;;;;;;;16.20;10.25;;;11.30;99.90;;;;;;5013521;28;20984;-76
2023/05/14 02:11:54;;;;;;;15.73;10.15;;;11.30;99.90;;;;;;5004208;28;20041;-76
2023/05/14 02:14:19;;;;;;;15.10;9.52;;;11.30;99.90;;;;;;5000637;28;20041;-76
2023/05/14 02:16:45;;;;;;;16.50;9.52;;;11.40;99.90;;;;;;5000343;28;20492;-76
2023/05/14 02:19:13;;;;;;;16.75;9.45;;;11.60;99.90;;;;;;4979444;28;20176;-76
2023/05/14 02:21:39;;;;;;;17.13;10.02;;;11.40;99.90;;;;;;5020073;28;20041;-75
2023/05/14 02:24:05;;;;;;;16.02;9.82;;;11.40;99.90;;;;;;5014432;28;20080;-76
2023/05/14 02:26:30;;;;;;;16.20;9.55;;;11.40;99.90;;;;;;5001275;28;20124;-76
2023/05/14 02:28:56;;;;;;;14.85;8.80;;;11.40;99.90;;;;;;5016056;28;20259;-76
2023/05/14 02:31:22;;;;;;;13.40;8.73;;;11.40;99.90;;;;;;5017419;28;20124;-75
2023/05/14 02:33:47;;;;;;;13.82;8.32;;;11.40;99.90;;;;;;5012922;28;20384;-75
2023/05/14 02:36:14;;;;;;;15.65;7.88;;;11.40;99.90;;;;;;4999437;28;20764;-75
2023/05/14 02:38:41;;;;;;;13.95;7.75;;;11.40;99.90;;;;;;5001688;28;20059;-76
2023/05/14 02:41:07;;;;;;;18.90;8.30;;;11.40;99.90;;;;;;4987200;28;20175;-77
2023/05/14 02:43:32;;;;;;;15.27;7.90;;;11.40;99.90;;;;;;5011871;28;20106;-76
2023/05/14 02:45:59;;;;;;;12.40;7.70;;;11.40;99.90;;;;;;4995830;28;20114;-76
2023/05/14 02:48:25;;;;;;;14.13;7.40;;;11.40;99.90;;;;;;4996387;28;20055;-75
2023/05/14 02:50:51;;;;;;;14.65;6.88;;;11.40;99.90;;;;;;5025621;28;20393;-76
2023/05/14 02:53:17;;;;;;;14.32;7.20;;;11.40;99.90;;;;;;5009589;28;20053;-75
2023/05/14 02:55:44;;;;;;;15.27;7.63;;;11.40;99.90;;;;;;5010891;28;20045;-76
2023/05/14 02:58:10;;;;;;;16.17;7.93;;;11.40;99.90;;;;;;5012656;28;20140;-76
2023/05/14 03:00:36;;;;;;;15.07;7.78;;;11.40;99.90;;;;;;4995409;28;20056;-76
2023/05/14 03:03:02;;;;;;;13.10;6.95;;;11.50;99.90;;;;;;4988488;28;20106;-76
2023/05/14 03:05:33;;;;;;;15.20;6.70;;;11.50;99.90;;;;;;5013209;28;20079;-76
2023/05/14 03:07:59;;;;;;;13.05;6.88;;;11.50;99.90;;;;;;5015785;28;20452;-77
2023/05/14 03:10:25;;;;;;;13.48;7.30;;;11.50;99.90;;;;;;4996114;28;20174;-76
2023/05/14 03:12:52;;;;;;;13.48;6.75;;;11.50;99.90;;;;;;4994136;28;20095;-77
2023/05/14 03:15:18;;;;;;;11.90;7.88;;;11.50;99.90;;;;;;5017484;28;20053;-77
2023/05/14 03:17:48;;;;;;;15.07;8.13;;;11.50;99.90;;;;;;4994316;28;20662;-76
2023/05/14 03:20:21;;;;;;;14.00;7.13;;;11.50;99.90;;;;;;5009277;28;20057;-77
2023/05/14 03:22:48;;;;;;;16.48;7.32;;;11.50;99.90;;;;;;5013708;28;21255;-77
2023/05/14 03:25:14;;;;;;;12.70;6.55;;;11.50;99.90;;;;;;5010075;28;20049;-76
2023/05/14 03:27:45;;;;;;;13.50;6.65;;;11.50;99.90;;;;;;5002660;28;20118;-76
2023/05/14 03:30:13;;;;;;;13.48;7.00;;;11.50;99.90;;;;;;4996933;28;20128;-75
2023/05/14 03:32:39;;;;;;;12.80;6.68;;;11.50;99.90;;;;;;5015259;28;20590;-76
2023/05/14 03:35:05;;;;;;;13.48;6.95;;;11.50;99.90;;;;;;5014482;28;20150;-75
2023/05/14 03:37:31;;;;;;;13.20;6.35;;;11.50;99.90;;;;;;5010737;28;20037;-76
2023/05/14 03:39:57;;;;;;;18.17;7.05;;;11.50;99.90;;;;;;4980405;28;20055;-75
2023/05/14 03:42:23;;;;;;;12.23;6.45;;;11.50;99.90;;;;;;4980921;28;20534;-77
2023/05/14 03:44:48;;;;;;;15.20;6.95;;;11.50;99.90;;;;;;5008820;28;20142;-77
2023/05/14 03:47:14;;;;;;;18.33;8.00;;;11.50;99.90;;;;;;4999265;28;20128;-76
2023/05/14 03:49:40;;;;;;;17.42;7.50;;;11.50;99.90;;;;;;4976673;28;20049;-76
2023/05/14 03:52:06;;;;;;;15.13;7.70;;;11.50;99.90;;;;;;5012601;28;20114;-76
2023/05/14 03:54:33;;;;;;;15.85;7.45;;;11.60;99.90;;;;;;4995728;28;20049;-75
2023/05/14 03:56:59;;;;;;;11.73;7.20;;;11.60;99.90;;;;;;5004319;28;20041;-75
2023/05/14 03:59:26;;;;;;;15.10;7.03;;;11.60;99.90;;;;;;4998262;28;20542;-75
2023/05/14 04:01:51;;;;;;;13.45;7.10;;;11.60;99.90;;;;;;5011043;28;20052;-77
2023/05/14 04:04:17;;;;;;;13.57;6.93;;;11.60;99.90;;;;;;5014271;28;20191;-76
2023/05/14 04:06:43;;;;;;;14.57;6.95;;;11.60;99.90;;;;;;5001855;28;21181;-77
2023/05/14 04:09:12;;;;;;;12.88;7.00;;;11.60;99.90;;;;;;5010061;28;20057;-76
2023/05/14 04:11:39;;;;;;;10.57;6.30;;;11.60;99.90;;;;;;4992767;28;20569;-77
2023/05/14 04:14:05;;;;;;;16.75;7.38;;;11.60;99.90;;;;;;5014314;28;20126;-77
2023/05/14 04:16:31;;;;;;;10.65;6.65;;;11.60;99.90;;;;;;5011304;28;20392;-76
2023/05/14 04:18:57;;;;;;;18.35;7.28;;;11.70;99.90;;;;;;5014003;28;20179;-77
2023/05/14 04:21:24;;;;;;;12.75;6.50;;;11.60;99.90;;;;;;4999759;28;20762;-76
2023/05/14 04:23:51;;;;;;;14.75;7.28;;;11.70;99.90;;;;;;5014178;28;20121;-76
2023/05/14 04:26:17;;;;;;;17.70;6.78;;;11.70;99.90;;;;;;5017279;28;20920;-76
2023/05/14 04:28:48;;;;;;;14.93;6.80;;;11.70;99.90;;;;;;4994276;28;20212;-76
2023/05/14 04:31:15;;;;;;;14.35;6.63;;;11.80;99.90;;;;;;5017716;28;20083;-76
2023/05/14 04:33:41;;;;;;;12.85;6.50;;;11.70;99.90;;;;;;5026449;28;20052;-76
2023/05/14 04:36:07;;;;;;;16.67;7.20;;;11.80;99.90;;;;;;5012367;28;20479;-76
2023/05/14 04:38:33;;;;;;;16.30;7.63;;;11.80;99.90;;;;;;5024932;28;20045;-75
2023/05/14 04:40:59;;;;;;;15.18;7.10;;;11.90;99.90;;;;;;5011143;28;20148;-76
2023/05/14 04:43:25;;;;;;;14.60;8.10;;;11.90;99.90;;;;;;5017025;28;20044;-75
2023/05/14 04:45:51;;;;;;;11.95;7.40;;;12.00;99.90;;;;;;5018922;28;20041;-76
2023/05/14 04:48:18;;;;;;;15.93;6.93;;;12.00;99.90;;;;;;4998126;28;20040;-76
2023/05/14 04:50:44;;;;;;;13.20;5.85;;;12.00;99.90;;;;;;4997578;28;20048;-76
2023/05/14 04:53:10;;;;;;;15.60;5.72;;;12.10;99.90;;;;;;4999835;28;20138;-76
2023/05/14 04:55:36;;;;;;;10.20;5.70;;;12.10;99.90;;;;;;5012378;28;20080;-76
2023/05/14 04:58:05;;;;;;;14.02;5.88;;;12.10;99.90;;;;;;5012617;28;20045;-76
2023/05/14 05:00:32;;;;;;;11.07;6.47;;;12.20;99.90;;;;;;4997370;28;20080;-76
2023/05/14 05:02:58;;;;;;;12.55;5.72;;;12.30;99.90;;;;;;4983935;28;20114;-76
2023/05/14 05:05:23;;;;;;;13.40;5.38;;;12.30;99.90;;;;;;4993181;28;20049;-76
2023/05/14 05:07:49;;;;;;;15.95;6.35;;;12.40;99.90;;;;;;5006954;28;20054;-77
2023/05/14 05:10:16;;;;;;;13.68;6.00;;;12.40;99.90;;;;;;4997199;28;20713;-78
2023/05/14 05:12:41;;;;;;;9.93;4.88;;;12.50;99.90;;;;;;4997402;28;20097;-76
2023/05/14 05:15:08;;;;;;;11.93;4.68;;;12.50;99.90;;;;;;5025784;28;20155;-78
2023/05/14 05:17:37;;;;;;;12.07;4.97;;;12.20;99.90;;;;;;5015334;28;20064;-78
2023/05/14 05:20:05;;;;;;;13.07;5.13;;;12.60;99.90;;;;;;5004971;28;20143;-77
2023/05/14 05:22:31;;;;;;;10.88;4.43;;;12.70;99.90;;;;;;5025399;28;20241;-77
2023/05/14 05:25:05;;;;;;;14.15;4.45;;;12.70;99.90;;;;;;5011737;28;20063;-77
2023/05/14 05:27:32;;;;;;;12.43;5.07;;;12.70;99.90;;;;;;5002354;28;20049;-76
2023/05/14 05:30:02;;;;;;;10.63;4.15;;;12.70;99.90;;;;;;5016386;28;20045;-75
2023/05/14 05:32:29;;;;;;;10.52;4.50;;;12.70;99.90;;;;;;5018423;28;20630;-77
2023/05/14 05:34:55;;;;;;;9.98;4.05;;;12.80;99.90;;;;;;4988890;28;21683;-78
2023/05/14 05:37:22;;;;;;;10.85;4.30;;;12.80;99.90;;;;;;5003390;28;20048;-76
2023/05/14 05:39:48;;;;;;;11.63;4.40;;;12.80;99.90;;;;;;5005646;28;20068;-77
2023/05/14 05:42:14;;;;;;;9.48;3.90;;;12.80;99.90;;;;;;5003855;28;20041;-77
2023/05/14 05:44:41;;;;;;;7.60;3.85;;;12.90;99.90;;;;;;5019925;28;20842;-78
2023/05/14 05:47:09;;;;;;;12.10;4.72;;;12.90;99.90;;;;;;5018155;28;21353;-77
2023/05/14 05:49:36;;;;;;;13.25;4.53;;;12.90;99.90;;;;;;5001047;28;20735;-77
2023/05/14 05:52:03;;;;;;;11.63;4.57;;;13.00;99.90;;;;;;5019371;28;20138;-76
2023/05/14 05:54:34;;;;;;;10.63;4.30;;;13.00;99.90;;;;;;5023849;28;20049;-76
2023/05/14 05:56:59;;;;;;;11.88;4.78;;;13.00;99.90;;;;;;5040254;28;20496;-77
2023/05/14 05:59:26;;;;;;;11.75;4.00;;;13.10;99.90;;;;;;5039462;28;20046;-77
2023/05/14 06:01:52;;;;;;;9.07;4.30;;;13.10;99.90;;;;;;5043147;28;20051;-77
2023/05/14 06:04:21;;;;;;;11.43;4.93;;;13.10;99.90;;;;;;5036859;28;20140;-75
2023/05/14 06:06:47;;;;;;;8.25;4.20;;;13.10;99.90;;;;;;5037982;28;20152;-76
2023/05/14 06:09:13;;;;;;;15.35;4.72;;;13.20;99.90;;;;;;5043724;28;20456;-76
2023/05/14 06:11:39;;;;;;;9.57;4.68;;;13.20;99.90;;;;;;5033353;28;20052;-76
2023/05/14 06:14:04;;;;;;;10.48;4.88;;;13.30;99.90;;;;;;5040010;28;20052;-77
2023/05/14 06:16:30;;;;;;;12.18;5.32;;;13.30;99.90;;;;;;5021464;28;20037;-77
2023/05/14 06:18:56;;;;;;;10.05;5.00;;;13.40;99.90;;;;;;5031710;28;20909;-75
2023/05/14 06:21:21;;;;;;;9.70;5.13;;;13.50;99.90;;;;;;5021024;28;20294;-75
2023/05/14 06:23:50;;;;;;;13.20;5.38;;;13.50;99.90;;;;;;5031636;28;20076;-75
2023/05/14 06:26:16;;;;;;;15.93;5.60;;;13.60;99.90;;;;;;5005402;28;20132;-76
2023/05/14 06:28:42;;;;;;;12.88;5.40;;;13.60;99.90;;;;;;5018803;28;20136;-76
2023/05/14 06:31:07;;;;;;;13.10;4.97;;;13.70;99.90;;;;;;5032934;28;20378;-76
2023/05/14 06:33:38;;;;;;;10.07;4.72;;;13.70;99.90;;;;;;5045020;28;20045;-76
2023/05/14 06:36:05;;;;;;;12.45;4.70;;;13.70;99.90;;;;;;4999215;28;20045;-76
2023/05/14 06:38:32;;;;;;;8.85;4.45;;;13.80;99.90;;;;;;5036161;28;20563;-75
2023/05/14 06:40:58;;;;;;;11.05;4.85;;;13.80;99.90;;;;;;5021244;28;20051;-77
2023/05/14 06:43:25;;;;;;;9.48;4.82;;;13.90;99.90;;;;;;5000475;28;20046;-77
2023/05/14 06:45:51;;;;;;;8.88;4.13;;;14.00;99.90;;;;;;5033750;28;20488;-76
2023/05/14 06:48:19;;;;;;;9.55;4.75;;;14.10;99.90;;;;;;5020522;28;20056;-76
2023/05/14 06:50:47;;;;;;;9.35;4.78;;;14.10;99.90;;;;;;5025683;28;20045;-76
2023/05/14 06:53:15;;;;;;;7.70;4.60;;;14.20;99.90;;;;;;5047485;28;20570;-76
2023/05/14 06:55:41;;;;;;;9.57;4.22;;;14.20;99.90;;;;;;5016828;28;20041;-77
2023/05/14 06:58:13;;;;;;;11.73;4.28;;;14.20;99.90;;;;;;5016806;28;20207;-78
2023/05/14 07:00:39;;;;;;;11.02;4.22;;;14.30;99.90;;;;;;5034151;28;20419;-76
2023/05/14 07:03:05;;;;;;;8.73;4.05;;;14.30;99.90;;;;;;5031858;28;20044;-77
2023/05/14 07:05:31;;;;;;;9.32;4.28;;;14.30;99.90;;;;;;5029219;28;20045;-77
2023/05/14 07:08:02;;;;;;;10.05;4.10;;;14.40;99.90;;;;;;5025259;28;20130;-77
2023/05/14 07:10:29;;;;;;;9.65;4.53;;;14.50;99.90;;;;;;5031113;28;20041;-76
2023/05/14 07:12:55;;;;;;;11.07;4.05;;;14.50;99.90;;;;;;5031034;28;20686;-75
2023/05/14 07:15:21;;;;;;;8.32;4.10;;;14.50;99.90;;;;;;5027377;28;20059;-75
2023/05/14 07:17:53;;;;;;;9.63;4.00;;;14.50;99.90;;;;;;5022443;28;20053;-74
2023/05/14 07:20:19;;;;;;;10.40;3.83;;;14.60;99.90;;;;;;5021121;28;20379;-77
2023/05/14 07:22:44;;;;;;;8.63;3.83;;;14.60;99.90;;;;;;5013650;28;20056;-75
2023/05/14 07:25:10;;;;;;;9.07;3.90;;;14.60;99.90;;;;;;5024133;28;20227;-76
2023/05/14 07:27:36;;;;;;;9.52;3.63;;;14.70;99.90;;;;;;4989535;28;20061;-76
2023/05/14 07:30:08;;;;;;;8.40;3.80;;;14.70;99.90;;;;;;4972689;28;20057;-78
2023/05/14 07:32:34;;;;;;;11.63;4.10;;;14.80;99.90;;;;;;4958333;28;20097;-77
2023/05/14 07:35:00;;;;;;;13.70;4.93;;;14.80;99.90;;;;;;4968468;28;20084;-76
2023/05/14 07:37:28;;;;;;;9.20;4.20;;;15.00;99.90;;;;;;4956950;28;20096;-76
2023/05/14 07:39:55;;;;;;;10.95;3.78;;;15.10;99.90;;;;;;4941518;28;20080;-76
2023/05/14 07:42:21;;;;;;;12.80;4.20;;;15.20;99.90;;;;;;4971122;28;20108;-77
2023/05/14 07:44:48;;;;;;;8.57;4.00;;;15.30;99.90;;;;;;4956368;28;20046;-76
2023/05/14 07:47:14;;;;;;;8.10;3.83;;;15.40;99.90;;;;;;4976627;28;20106;-76
2023/05/14 07:49:45;;;;;;;10.32;3.70;;;15.40;99.90;;;;;;4979560;28;20108;-76
2023/05/14 07:52:11;;;;;;;9.35;3.85;;;15.50;99.90;;;;;;4969897;28;20057;-76
2023/05/14 07:54:37;;;;;;;10.98;4.00;;;15.60;99.90;;;;;;4971787;28;20108;-76
2023/05/14 07:57:03;;;;;;;8.25;3.83;;;15.60;99.90;;;;;;4962999;28;20671;-76
2023/05/14 07:59:28;;;;;;;8.93;3.58;;;15.70;99.90;;;;;;4963744;28;20132;-76
2023/05/14 08:01:54;;;;;;;15.40;4.13;;;15.70;99.90;;;;;;4979098;28;20340;-76
2023/05/14 08:04:22;;;;;;;10.52;4.10;;;15.60;99.90;;;;;;4982137;28;20198;-77
2023/05/14 08:06:48;;;;;;;10.57;3.58;;;15.60;99.90;;;;;;5018824;28;20119;-76
2023/05/14 08:09:16;;;;;;;8.48;3.63;;;15.60;99.90;;;;;;5047089;28;20076;-77
2023/05/14 08:11:41;;;;;;;9.75;3.70;;;15.60;99.90;;;;;;5027891;28;20056;-78
2023/05/14 08:14:07;;;;;;;11.10;3.88;;;15.70;99.90;;;;;;5026954;28;20045;-76
2023/05/14 08:16:33;;;;;;;12.18;4.13;;;15.70;99.90;;;;;;5042963;28;20049;-77
2023/05/14 08:18:59;;;;;;;8.93;4.10;;;15.80;99.90;;;;;;5028060;28;20445;-76
2023/05/14 08:21:26;;;;;;;8.43;4.28;;;15.90;99.90;;;;;;5026798;28;20293;-75
2023/05/14 08:23:52;;;;;;;8.13;4.05;;;16.10;99.90;;;;;;5026326;28;20064;-78
2023/05/14 08:26:21;;;;;;;9.95;3.53;;;16.30;99.90;;;;;;5045169;28;20037;-76
2023/05/14 08:28:48;;;;;;;8.00;3.50;;;16.50;99.90;;;;;;5016858;28;20416;-77
2023/05/14 08:31:14;;;;;;;14.68;4.00;;;17.00;99.90;;;;;;5035056;28;21053;-75
2023/05/14 08:33:40;;;;;;;14.00;4.80;;;16.90;99.90;;;;;;5034002;28;20409;-75
2023/05/14 08:36:06;;;;;;;10.95;3.67;;;17.20;99.90;;;;;;5017818;28;20041;-76
2023/05/14 08:38:32;;;;;;;11.88;4.60;;;17.50;99.90;;;;;;5030855;28;20137;-76
2023/05/14 08:40:59;;;;;;;11.65;4.30;;;17.80;99.90;;;;;;5032546;28;20041;-76
2023/05/14 08:44:05;;;;;;;10.95;4.10;;;18.00;99.90;;;;;;5027033;28;20072;-77
2023/05/14 08:46:32;;;;;;;13.75;4.50;;;18.20;99.90;;;;;;5032848;28;20045;-77
2023/05/14 08:49:27;;;;;;;10.05;3.58;;;18.40;99.90;;;;;;4977700;28;20053;-76
2023/05/14 08:51:54;;;;;;;10.95;3.90;;;18.60;99.90;;;;;;5031932;28;20052;-78
2023/05/14 08:54:22;;;;;;;9.82;4.05;;;18.90;99.90;;;;;;5002519;28;20045;-76
2023/05/14 08:56:51;;;;;;;10.75;3.78;;;19.00;99.90;;;;;;5024450;28;20056;-76
2023/05/14 08:59:17;;;;;;;8.80;3.85;;;19.30;99.90;;;;;;5033802;28;20728;-77
2023/05/14 09:01:46;;;;;;;7.63;4.00;;;19.40;99.90;;;;;;5000718;28;20087;-77
2023/05/14 09:04:19;;;;;;;6.20;3.63;;;19.60;99.90;;;;;;5025489;28;20056;-76
2023/05/14 09:06:50;;;;;;;8.75;3.25;;;19.90;99.90;;;;;;5016137;28;20049;-76
2023/05/14 09:09:16;;;;;;;9.48;3.35;;;20.10;99.90;;;;;;5035123;28;20049;-75
2023/05/14 09:11:45;;;;;;;9.68;3.40;;;20.20;99.90;;;;;;5016675;28;20060;-76
2023/05/14 09:14:12;;;;;;;10.70;3.47;;;20.50;99.90;;;;;;5016029;28;20402;-78
2023/05/14 09:16:40;;;;;;;8.13;3.15;;;20.60;99.90;;;;;;5042446;28;20048;-75
2023/05/14 09:19:06;;;;;;;10.13;3.28;;;20.70;99.90;;;;;;5026084;28;20081;-76
2023/05/14 09:21:33;;;;;;;8.45;3.10;;;21.00;99.90;;;;;;5028595;28;20153;-75
2023/05/14 09:23:59;;;;;;;7.85;3.20;;;21.10;99.90;;;;;;5015703;28;20217;-77
2023/05/14 09:26:27;;;;;;;7.38;3.00;;;21.20;99.90;;;;;;5021689;28;20040;-75
2023/05/14 09:29:00;;;;;;;7.30;3.15;;;21.40;99.90;;;;;;5031128;28;20069;-75
2023/05/14 09:31:32;;;;;;;6.82;2.65;;;21.50;99.90;;;;;;5029364;28;20048;-75
2023/05/14 09:33:59;;;;;;;10.77;3.20;;;21.70;99.90;;;;;;5021498;28;20048;-77
2023/05/14 09:36:26;;;;;;;5.82;2.70;;;21.90;99.90;;;;;;5039231;28;20053;-75
2023/05/14 09:38:55;;;;;;;8.15;2.80;;;21.90;99.90;;;;;;5035004;28;20053;-78
2023/05/14 09:41:21;;;;;;;6.57;2.88;;;22.10;99.90;;;;;;5054960;28;20040;-77
2023/05/14 09:43:48;;;;;;;9.13;2.95;;;22.00;99.90;;;;;;5025959;28;20048;-78
2023/05/14 09:46:14;;;;;;;10.38;3.22;;;22.00;99.90;;;;;;5010259;28;20049;-76
2023/05/14 09:48:40;;;;;;;8.93;2.78;;;22.00;99.90;;;;;;5034766;28;21066;-76
2023/05/14 09:51:06;;;;;;;11.18;3.63;;;22.00;99.90;;;;;;5033178;28;20124;-78
2023/05/14 09:53:33;;;;;;;7.68;3.17;;;22.30;99.90;;;;;;5048808;28;20051;-76
2023/05/14 09:55:59;;;;;;;11.13;3.70;;;22.60;99.90;;;;;;5032671;28;20049;-76
2023/05/14 09:58:25;;;;;;;10.57;3.70;;;22.80;99.90;;;;;;5018795;28;20060;-78
2023/05/14 10:00:53;;;;;;;8.82;4.00;;;23.00;99.90;;;;;;5036724;28;20060;-77
2023/05/14 10:03:23;;;;;;;8.27;3.58;;;23.20;99.90;;;;;;5021069;28;20044;-76
2023/05/14 10:05:50;;;;;;;9.13;3.60;;;23.30;99.90;;;;;;5039459;28;20187;-77
2023/05/14 10:08:26;;;;;;;7.13;2.92;;;23.50;99.90;;;;;;5037570;28;20241;-78
2023/05/14 10:10:54;;;;;;;7.35;3.13;;;23.50;99.90;;;;;;5019099;28;20041;-78
2023/05/14 10:13:26;;;;;;;8.13;3.55;;;23.50;99.90;;;;;;5037859;28;20104;-76
2023/05/14 10:16:14;;;;;;;8.65;3.45;;;23.50;99.90;;;;;;5040662;28;20405;-76
2023/05/14 10:18:45;;;;;;;9.30;3.40;;;23.50;99.90;;;;;;5033458;28;20053;-77
2023/05/14 10:21:15;;;;;;;7.40;3.10;;;23.70;99.90;;;;;;5030723;28;20709;-75
2023/05/14 10:23:42;;;;;;;7.97;3.00;;;24.00;99.90;;;;;;5038513;28;20512;-77
2023/05/14 10:26:09;;;;;;;9.75;4.60;;;24.20;99.90;;;;;;5036009;28;20041;-77
2023/05/14 10:28:35;;;;;;;7.38;3.50;;;24.20;99.90;;;;;;5021279;28;20049;-77
2023/05/14 10:31:01;;;;;;;10.65;4.03;;;24.30;99.90;;;;;;5031345;28;20052;-78
2023/05/14 10:33:27;;;;;;;11.02;4.60;;;24.30;99.90;;;;;;5031819;28;20045;-77
2023/05/14 10:36:01;;;;;;;8.45;4.15;;;23.80;99.90;;;;;;5009530;28;21401;-77
2023/05/14 10:38:35;;;;;;;8.40;4.17;;;24.40;99.90;;;;;;5028890;28;20053;-80
2023/05/14 10:41:01;;;;;;;7.00;3.80;;;24.40;99.90;;;;;;5033433;28;20391;-79
2023/05/14 10:43:29;;;;;;;6.13;3.30;;;24.30;99.90;;;;;;5031097;28;20052;-76
2023/05/14 10:45:56;;;;;;;10.23;3.30;;;24.50;99.90;;;;;;5030810;28;20045;-76
2023/05/14 10:48:28;;;;;;;8.73;3.53;;;24.70;99.90;;;;;;5032090;28;20380;-77
2023/05/14 10:50:58;;;;;;;8.00;4.10;;;24.80;99.90;;;;;;5027481;28;20049;-76
2023/05/14 10:53:35;;;;;;;9.25;3.80;;;24.90;99.90;;;;;;5030779;28;20045;-74
2023/05/14 10:56:03;;;;;;;7.15;3.85;;;24.80;99.40;;;;;;5013723;28;20049;-77
2023/05/14 10:58:33;;;;;;;10.13;4.03;;;25.10;99.90;;;;;;5030225;28;20069;-78
2023/05/14 11:01:00;;;;;;;11.82;3.92;;;25.30;99.90;;;;;;5011167;28;20045;-78
2023/05/14 11:03:32;;;;;;;6.20;3.10;;;25.30;99.70;;;;;;5039436;28;20080;-76
2023/05/14 11:06:07;;;;;;;8.30;3.78;;;25.50;99.40;;;;;;5049685;28;20126;-77
2023/05/14 11:08:35;;;;;;;7.78;4.25;;;25.50;99.40;;;;;;5030455;28;20137;-77
2023/05/14 11:11:01;;;;;;;7.85;4.15;;;25.70;99.10;;;;;;5019903;28;20216;-77
2023/05/14 11:13:28;;;;;;;6.45;4.45;;;25.90;98.60;;;;;;5044802;28;20156;-75
2023/05/14 11:15:56;;;;;;;8.88;4.53;;;26.00;98.20;;;;;;5032012;28;20152;-76
2023/05/14 11:18:30;;;;;;;7.82;4.55;;;26.00;98.10;;;;;;5013543;28;20565;-78
2023/05/14 11:21:02;;;;;;;6.90;4.38;;;26.00;97.60;;;;;;5032670;28;20056;-76
2023/05/14 11:23:28;;;;;;;9.07;4.72;;;26.00;97.70;;;;;;5026759;28;20053;-77
2023/05/14 11:25:55;;;;;;;10.93;4.90;;;25.90;97.60;;;;;;5027905;28;20882;-77
2023/05/14 11:28:22;;;;;;;8.57;4.85;;;25.90;97.50;;;;;;5025591;28;20139;-75
2023/05/14 11:30:53;;;;;;;11.02;5.00;;;26.10;97.40;;;;;;5033443;28;20055;-76
2023/05/14 11:33:19;;;;;;;8.25;4.53;;;26.20;97.30;;;;;;5026028;28;20053;-77
2023/05/14 11:35:49;;;;;;;10.02;4.82;;;26.30;97.00;;;;;;5031391;28;20053;-76
2023/05/14 11:38:20;;;;;;;7.85;4.10;;;26.40;96.60;;;;;;5031208;28;20049;-77
2023/05/14 11:40:56;;;;;;;8.82;5.15;;;26.40;96.50;;;;;;5030781;28;20161;-76
2023/05/14 11:43:22;;;;;;;11.65;5.10;;;26.30;96.00;;;;;;5030026;28;20068;-77
2023/05/14 11:45:52;;;;;;;10.70;5.18;;;26.20;96.40;;;;;;5020658;28;20407;-77
2023/05/14 11:48:19;;;;;;;9.55;4.35;;;26.30;96.40;;;;;;5032944;28;20136;-78
2023/05/14 11:50:47;;;;;;;10.93;5.40;;;26.80;96.50;;;;;;5035990;28;20535;-78
2023/05/14 11:53:20;;;;;;;9.48;5.18;;;26.30;96.00;;;;;;5034846;28;20053;-77
2023/05/14 11:55:46;;;;;;;8.75;4.40;;;26.40;95.90;;;;;;5029574;28;20500;-78
2023/05/14 11:58:14;;;;;;;9.18;4.43;;;26.40;95.90;;;;;;5015867;28;20182;-78
2023/05/14 12:00:40;;;;;;;9.85;4.45;;;26.40;95.80;;;;;;5032679;28;20474;-77
2023/05/14 12:03:08;;;;;;;7.32;3.95;;;26.40;95.70;;;;;;5029968;28;20051;-77
2023/05/14 12:05:38;;;;;;;8.90;4.13;;;26.20;95.60;;;;;;5018318;28;20560;-79
2023/05/14 12:08:20;;;;;;;9.32;3.95;;;26.10;95.60;;;;;;5031985;28;20593;-79
2023/05/14 12:10:46;;;;;;;9.15;3.72;;;26.40;95.20;;;;;;5018860;28;20064;-77
2023/05/14 12:13:17;;;;;;;7.18;4.13;;;26.10;95.80;;;;;;5033423;28;20055;-77
2023/05/14 12:15:52;;;;;;;10.32;4.68;;;25.90;96.00;;;;;;5037349;28;20056;-77
2023/05/14 12:18:18;;;;;;;7.82;4.22;;;25.80;95.70;;;;;;5033113;28;20077;-77
2023/05/14 12:20:51;;;;;;;8.52;4.80;;;25.90;96.10;;;;;;5014916;28;20534;-78
2023/05/14 12:23:28;;;;;;;10.25;5.22;;;25.90;95.90;;;;;;5055626;28;20491;-79
2023/05/14 12:25:54;;;;;;;9.48;4.47;;;25.90;95.30;;;;;;5022721;28;20045;-77
2023/05/14 12:28:21;;;;;;;7.18;4.28;;;25.90;95.70;;;;;;5051481;28;20095;-79
2023/05/14 12:30:56;;;;;;;10.57;5.10;;;25.90;95.70;;;;;;5022119;28;20182;-78
2023/05/14 12:33:22;;;;;;;8.95;5.65;;;25.70;95.40;;;;;;5038018;28;20045;-77
2023/05/14 12:35:49;;;;;;;8.55;4.93;;;25.90;95.30;;;;;;5032350;28;20096;-77
2023/05/14 12:38:15;;;;;;;12.07;5.25;;;25.90;95.40;;;;;;5031178;28;20434;-79
2023/05/14 12:40:40;;;;;;;9.25;4.85;;;25.90;95.50;;;;;;5039505;28;20124;-77